sensor_id;sensor_type;location;lat;lon;timestamp;P1;durP1;ratioP1;P2;durP2;ratioP2
53843;SDS011;39744;53.314;5.710;2023-02-08T10:30:30;24.00;;;13.73;;
53843;SDS011;39744;53.314;5.710;2023-02-08T10:32:59;25.83;;;14.40;;
53843;SDS011;39744;53.314;5.710;2023-02-08T10:35:31;25.25;;;14.30;;
53843;SDS011;39744;53.314;5.710;2023-02-08T10:38:10;23.95;;;13.85;;
53843;SDS011;39744;53.314;5.710;2023-02-08T10:40:45;23.10;;;12.57;;
53843;SDS011;39744;53.314;5.710;2023-02-08T10:48:59;23.08;;;12.88;;
53843;SDS011;39744;53.314;5.710;2023-02-08T10:52:00;23.13;;;13.57;;
53843;SDS011;39744;53.314;5.710;2023-02-08T10:54:26;25.05;;;13.65;;
53843;SDS011;39744;53.314;5.710;2023-02-08T10:56:54;25.23;;;14.07;;
53843;SDS011;39744;53.314;5.710;2023-02-08T11:01:53;25.02;;;13.00;;
53843;SDS011;39744;53.314;5.710;2023-02-08T11:04:20;26.35;;;13.93;;
53843;SDS011;39744;53.314;5.710;2023-02-08T11:06:46;23.35;;;13.02;;
53843;SDS011;39744;53.314;5.710;2023-02-08T11:09:20;26.13;;;13.57;;
53843;SDS011;39744;53.314;5.710;2023-02-08T11:11:48;26.30;;;13.98;;
53843;SDS011;39744;53.314;5.710;2023-02-08T11:14:17;25.10;;;13.55;;
53843;SDS011;39744;53.314;5.710;2023-02-08T11:16:57;26.63;;;13.68;;
53843;SDS011;39744;53.314;5.710;2023-02-08T11:19:41;30.13;;;14.48;;
53843;SDS011;39744;53.314;5.710;2023-02-08T11:22:19;23.85;;;13.18;;
53843;SDS011;39744;53.314;5.710;2023-02-08T11:24:58;23.08;;;12.30;;
53843;SDS011;39744;53.314;5.710;2023-02-08T11:32:41;25.30;;;13.77;;
53843;SDS011;39744;53.314;5.710;2023-02-08T11:37:55;26.38;;;13.95;;
53843;SDS011;39744;53.314;5.710;2023-02-08T11:40:30;21.63;;;12.48;;
53843;SDS011;39744;53.314;5.710;2023-02-08T11:42:59;21.70;;;11.93;;
53843;SDS011;39744;53.314;5.710;2023-02-08T11:45:33;22.30;;;11.63;;
53843;SDS011;39744;53.314;5.710;2023-02-08T11:48:00;29.88;;;11.60;;
53843;SDS011;39744;53.314;5.710;2023-02-08T11:50:30;23.98;;;12.23;;
53843;SDS011;39744;53.314;5.710;2023-02-08T11:52:58;23.75;;;12.52;;
53843;SDS011;39744;53.314;5.710;2023-02-08T11:55:27;21.33;;;11.60;;
53843;SDS011;39744;53.314;5.710;2023-02-08T11:57:56;19.20;;;12.13;;
53843;SDS011;39744;53.314;5.710;2023-02-08T12:00:37;20.58;;;11.07;;
53843;SDS011;39744;53.314;5.710;2023-02-08T12:03:04;20.63;;;12.75;;
53843;SDS011;39744;53.314;5.710;2023-02-08T12:05:47;21.15;;;11.35;;
53843;SDS011;39744;53.314;5.710;2023-02-08T12:08:37;20.50;;;10.82;;
53843;SDS011;39744;53.314;5.710;2023-02-08T12:19:20;19.98;;;11.25;;
53843;SDS011;39744;53.314;5.710;2023-02-08T12:21:54;18.42;;;11.13;;
53843;SDS011;39744;53.314;5.710;2023-02-08T12:27:59;20.00;;;10.88;;
53843;SDS011;39744;53.314;5.710;2023-02-08T12:30:31;22.00;;;11.88;;
53843;SDS011;39744;53.314;5.710;2023-02-08T12:43:56;20.73;;;11.00;;
53843;SDS011;39744;53.314;5.710;2023-02-08T12:51:44;16.08;;;9.70;;
53843;SDS011;39744;53.314;5.710;2023-02-08T12:54:13;18.65;;;11.05;;
53843;SDS011;39744;53.314;5.710;2023-02-08T12:56:48;19.15;;;11.20;;
53843;SDS011;39744;53.314;5.710;2023-02-08T12:59:22;16.63;;;9.63;;
53843;SDS011;39744;53.314;5.710;2023-02-08T13:01:53;19.20;;;9.90;;
53843;SDS011;39744;53.314;5.710;2023-02-08T13:04:28;18.50;;;10.32;;
53843;SDS011;39744;53.314;5.710;2023-02-08T13:06:58;16.75;;;9.55;;
53843;SDS011;39744;53.314;5.710;2023-02-08T13:12:02;14.70;;;9.70;;
53843;SDS011;39744;53.314;5.710;2023-02-08T13:14:51;18.67;;;9.55;;
53843;SDS011;39744;53.314;5.710;2023-02-08T13:19:55;17.48;;;9.93;;
53843;SDS011;39744;53.314;5.710;2023-02-08T13:22:40;18.33;;;10.20;;
53843;SDS011;39744;53.314;5.710;2023-02-08T13:25:08;17.02;;;9.70;;
53843;SDS011;39744;53.314;5.710;2023-02-08T13:27:40;15.75;;;9.73;;
53843;SDS011;39744;53.314;5.710;2023-02-08T13:30:06;16.02;;;9.13;;
53843;SDS011;39744;53.314;5.710;2023-02-08T13:32:44;17.55;;;10.18;;
53843;SDS011;39744;53.314;5.710;2023-02-08T13:35:12;13.45;;;9.13;;
53843;SDS011;39744;53.314;5.710;2023-02-08T13:37:41;13.25;;;8.52;;
53843;SDS011;39744;53.314;5.710;2023-02-08T13:40:17;14.65;;;8.13;;
53843;SDS011;39744;53.314;5.710;2023-02-08T13:43:04;12.18;;;7.75;;
53843;SDS011;39744;53.314;5.710;2023-02-08T13:45:51;14.75;;;8.60;;
53843;SDS011;39744;53.314;5.710;2023-02-08T13:48:20;14.10;;;8.40;;
53843;SDS011;39744;53.314;5.710;2023-02-08T13:50:46;14.43;;;8.77;;
53843;SDS011;39744;53.314;5.710;2023-02-08T13:53:13;14.52;;;8.52;;
53843;SDS011;39744;53.314;5.710;2023-02-08T13:55:52;15.88;;;9.48;;
53843;SDS011;39744;53.314;5.710;2023-02-08T13:58:56;14.65;;;8.82;;
53843;SDS011;39744;53.314;5.710;2023-02-08T14:01:34;13.32;;;8.23;;
53843;SDS011;39744;53.314;5.710;2023-02-08T14:07:05;12.40;;;8.27;;
53843;SDS011;39744;53.314;5.710;2023-02-08T14:12:12;18.35;;;8.15;;
53843;SDS011;39744;53.314;5.710;2023-02-08T14:17:31;14.68;;;9.60;;
53843;SDS011;39744;53.314;5.710;2023-02-08T14:19:58;13.73;;;8.10;;
53843;SDS011;39744;53.314;5.710;2023-02-08T14:22:33;12.23;;;8.10;;
53843;SDS011;39744;53.314;5.710;2023-02-08T14:25:07;13.82;;;8.30;;
53843;SDS011;39744;53.314;5.710;2023-02-08T14:28:03;12.90;;;8.20;;
53843;SDS011;39744;53.314;5.710;2023-02-08T14:30:30;23.75;;;8.57;;
53843;SDS011;39744;53.314;5.710;2023-02-08T14:35:34;15.02;;;8.43;;
53843;SDS011;39744;53.314;5.710;2023-02-08T14:38:48;15.02;;;8.25;;
53843;SDS011;39744;53.314;5.710;2023-02-08T14:40:58;14.88;;;8.40;;
53843;SDS011;39744;53.314;5.710;2023-02-08T14:45:58;13.82;;;8.63;;
53843;SDS011;39744;53.314;5.710;2023-02-08T14:49:02;14.57;;;8.52;;
53843;SDS011;39744;53.314;5.710;2023-02-08T14:51:48;17.17;;;9.35;;
53843;SDS011;39744;53.314;5.710;2023-02-08T14:54:22;14.75;;;8.93;;
53843;SDS011;39744;53.314;5.710;2023-02-08T14:57:03;14.30;;;8.30;;
53843;SDS011;39744;53.314;5.710;2023-02-08T14:59:31;13.05;;;8.23;;
53843;SDS011;39744;53.314;5.710;2023-02-08T15:02:00;11.73;;;7.53;;
53843;SDS011;39744;53.314;5.710;2023-02-08T15:04:28;17.95;;;8.55;;
53843;SDS011;39744;53.314;5.710;2023-02-08T15:09:42;14.27;;;7.95;;
53843;SDS011;39744;53.314;5.710;2023-02-08T15:14:45;15.07;;;8.52;;
53843;SDS011;39744;53.314;5.710;2023-02-08T15:17:33;13.93;;;8.35;;
53843;SDS011;39744;53.314;5.710;2023-02-08T15:20:06;14.25;;;7.97;;
53843;SDS011;39744;53.314;5.710;2023-02-08T15:22:41;15.07;;;8.40;;
53843;SDS011;39744;53.314;5.710;2023-02-08T15:25:15;14.68;;;8.70;;
53843;SDS011;39744;53.314;5.710;2023-02-08T15:27:45;15.77;;;8.30;;
53843;SDS011;39744;53.314;5.710;2023-02-08T15:32:48;15.23;;;8.15;;
53843;SDS011;39744;53.314;5.710;2023-02-08T15:35:14;14.65;;;8.40;;
53843;SDS011;39744;53.314;5.710;2023-02-08T15:37:44;15.52;;;8.48;;
53843;SDS011;39744;53.314;5.710;2023-02-08T15:40:24;14.52;;;8.40;;
53843;SDS011;39744;53.314;5.710;2023-02-08T15:42:50;16.48;;;9.10;;
53843;SDS011;39744;53.314;5.710;2023-02-08T15:45:26;16.40;;;8.07;;
53843;SDS011;39744;53.314;5.710;2023-02-08T15:47:55;16.90;;;8.82;;
53843;SDS011;39744;53.314;5.710;2023-02-08T15:50:21;14.65;;;7.78;;
53843;SDS011;39744;53.314;5.710;2023-02-08T15:52:50;15.30;;;8.25;;
53843;SDS011;39744;53.314;5.710;2023-02-08T15:55:21;14.63;;;7.97;;
53843;SDS011;39744;53.314;5.710;2023-02-08T15:57:55;16.65;;;8.50;;
53843;SDS011;39744;53.314;5.710;2023-02-08T16:00:29;16.10;;;8.43;;
53843;SDS011;39744;53.314;5.710;2023-02-08T16:03:04;19.27;;;8.43;;
53843;SDS011;39744;53.314;5.710;2023-02-08T16:05:33;14.15;;;8.18;;
53843;SDS011;39744;53.314;5.710;2023-02-08T16:08:00;14.70;;;8.00;;
53843;SDS011;39744;53.314;5.710;2023-02-08T16:10:30;13.90;;;8.02;;
53843;SDS011;39744;53.314;5.710;2023-02-08T16:13:13;15.90;;;8.48;;
53843;SDS011;39744;53.314;5.710;2023-02-08T16:15:45;13.18;;;7.68;;
53843;SDS011;39744;53.314;5.710;2023-02-08T16:21:17;12.50;;;7.10;;
53843;SDS011;39744;53.314;5.710;2023-02-08T16:23:47;14.75;;;8.00;;
53843;SDS011;39744;53.314;5.710;2023-02-08T16:26:43;16.20;;;7.78;;
53843;SDS011;39744;53.314;5.710;2023-02-08T16:29:34;13.90;;;8.13;;
53843;SDS011;39744;53.314;5.710;2023-02-08T16:32:04;14.00;;;7.20;;
53843;SDS011;39744;53.314;5.710;2023-02-08T16:34:43;14.48;;;7.40;;
53843;SDS011;39744;53.314;5.710;2023-02-08T16:37:20;13.55;;;7.55;;
53843;SDS011;39744;53.314;5.710;2023-02-08T16:42:33;15.18;;;7.55;;
53843;SDS011;39744;53.314;5.710;2023-02-08T16:47:34;14.07;;;7.00;;
53843;SDS011;39744;53.314;5.710;2023-02-08T16:50:07;13.80;;;7.07;;
53843;SDS011;39744;53.314;5.710;2023-02-08T16:52:35;14.20;;;6.65;;
53843;SDS011;39744;53.314;5.710;2023-02-08T16:55:02;11.98;;;7.40;;
53843;SDS011;39744;53.314;5.710;2023-02-08T16:57:42;13.73;;;6.88;;
53843;SDS011;39744;53.314;5.710;2023-02-08T17:00:43;12.23;;;6.80;;
53843;SDS011;39744;53.314;5.710;2023-02-08T17:03:02;13.52;;;6.65;;
53843;SDS011;39744;53.314;5.710;2023-02-08T17:05:29;14.80;;;7.38;;
53843;SDS011;39744;53.314;5.710;2023-02-08T17:07:56;12.82;;;6.97;;
53843;SDS011;39744;53.314;5.710;2023-02-08T17:10:24;11.95;;;6.20;;
53843;SDS011;39744;53.314;5.710;2023-02-08T17:12:52;14.07;;;6.20;;
53843;SDS011;39744;53.314;5.710;2023-02-08T17:15:18;14.13;;;6.97;;
53843;SDS011;39744;53.314;5.710;2023-02-08T17:17:45;15.82;;;7.00;;
53843;SDS011;39744;53.314;5.710;2023-02-08T17:20:16;12.02;;;6.18;;
53843;SDS011;39744;53.314;5.710;2023-02-08T17:22:47;13.40;;;6.85;;
53843;SDS011;39744;53.314;5.710;2023-02-08T17:25:14;16.48;;;7.82;;
53843;SDS011;39744;53.314;5.710;2023-02-08T17:27:56;14.20;;;8.07;;
53843;SDS011;39744;53.314;5.710;2023-02-08T17:30:28;14.65;;;6.82;;
53843;SDS011;39744;53.314;5.710;2023-02-08T17:33:02;13.75;;;6.85;;
53843;SDS011;39744;53.314;5.710;2023-02-08T17:35:30;11.98;;;6.93;;
53843;SDS011;39744;53.314;5.710;2023-02-08T17:37:57;13.57;;;6.78;;
53843;SDS011;39744;53.314;5.710;2023-02-08T17:40:24;11.80;;;6.65;;
53843;SDS011;39744;53.314;5.710;2023-02-08T17:45:22;14.40;;;6.63;;
53843;SDS011;39744;53.314;5.710;2023-02-08T17:47:48;9.82;;;5.78;;
53843;SDS011;39744;53.314;5.710;2023-02-08T17:50:15;13.68;;;5.90;;
53843;SDS011;39744;53.314;5.710;2023-02-08T17:52:43;11.75;;;6.20;;
53843;SDS011;39744;53.314;5.710;2023-02-08T17:55:10;11.45;;;6.32;;
53843;SDS011;39744;53.314;5.710;2023-02-08T17:57:37;12.15;;;6.68;;
53843;SDS011;39744;53.314;5.710;2023-02-08T18:00:06;13.43;;;6.60;;
53843;SDS011;39744;53.314;5.710;2023-02-08T18:02:34;12.57;;;6.18;;
53843;SDS011;39744;53.314;5.710;2023-02-08T18:05:00;15.57;;;6.43;;
53843;SDS011;39744;53.314;5.710;2023-02-08T18:07:25;11.85;;;5.95;;
53843;SDS011;39744;53.314;5.710;2023-02-08T18:09:51;12.48;;;6.30;;
53843;SDS011;39744;53.314;5.710;2023-02-08T18:12:17;16.83;;;6.70;;
53843;SDS011;39744;53.314;5.710;2023-02-08T18:14:43;14.20;;;6.75;;
53843;SDS011;39744;53.314;5.710;2023-02-08T18:17:08;13.93;;;6.18;;
53843;SDS011;39744;53.314;5.710;2023-02-08T18:19:34;12.30;;;6.65;;
53843;SDS011;39744;53.314;5.710;2023-02-08T18:22:00;11.05;;;6.10;;
53843;SDS011;39744;53.314;5.710;2023-02-08T18:24:28;12.35;;;6.10;;
53843;SDS011;39744;53.314;5.710;2023-02-08T18:26:55;11.23;;;6.38;;
53843;SDS011;39744;53.314;5.710;2023-02-08T18:29:21;15.70;;;6.82;;
53843;SDS011;39744;53.314;5.710;2023-02-08T18:31:48;14.95;;;6.90;;
53843;SDS011;39744;53.314;5.710;2023-02-08T18:34:13;15.88;;;7.10;;
53843;SDS011;39744;53.314;5.710;2023-02-08T18:36:40;15.23;;;7.05;;
53843;SDS011;39744;53.314;5.710;2023-02-08T18:39:06;12.98;;;6.75;;
53843;SDS011;39744;53.314;5.710;2023-02-08T18:41:32;15.15;;;7.28;;
53843;SDS011;39744;53.314;5.710;2023-02-08T18:43:58;12.48;;;7.28;;
53843;SDS011;39744;53.314;5.710;2023-02-08T18:46:24;15.63;;;7.53;;
53843;SDS011;39744;53.314;5.710;2023-02-08T18:48:51;12.63;;;7.05;;
53843;SDS011;39744;53.314;5.710;2023-02-08T18:51:20;15.52;;;7.28;;
53843;SDS011;39744;53.314;5.710;2023-02-08T18:53:49;13.18;;;6.43;;
53843;SDS011;39744;53.314;5.710;2023-02-08T18:56:16;10.35;;;6.40;;
53843;SDS011;39744;53.314;5.710;2023-02-08T18:58:45;13.48;;;7.00;;
53843;SDS011;39744;53.314;5.710;2023-02-08T19:01:29;13.90;;;6.65;;
53843;SDS011;39744;53.314;5.710;2023-02-08T19:03:56;12.85;;;6.82;;
53843;SDS011;39744;53.314;5.710;2023-02-08T19:06:23;11.88;;;5.70;;
53843;SDS011;39744;53.314;5.710;2023-02-08T19:08:51;9.52;;;5.57;;
53843;SDS011;39744;53.314;5.710;2023-02-08T19:11:23;13.07;;;6.30;;
53843;SDS011;39744;53.314;5.710;2023-02-08T19:13:50;13.45;;;6.93;;
53843;SDS011;39744;53.314;5.710;2023-02-08T19:16:17;12.20;;;5.97;;
53843;SDS011;39744;53.314;5.710;2023-02-08T19:18:45;12.63;;;6.22;;
53843;SDS011;39744;53.314;5.710;2023-02-08T19:21:12;16.90;;;6.55;;
53843;SDS011;39744;53.314;5.710;2023-02-08T19:23:41;13.68;;;6.25;;
53843;SDS011;39744;53.314;5.710;2023-02-08T19:26:12;11.38;;;6.05;;
53843;SDS011;39744;53.314;5.710;2023-02-08T19:28:40;13.15;;;6.50;;
53843;SDS011;39744;53.314;5.710;2023-02-08T19:31:07;13.43;;;7.10;;
53843;SDS011;39744;53.314;5.710;2023-02-08T19:33:38;12.55;;;5.90;;
53843;SDS011;39744;53.314;5.710;2023-02-08T19:36:09;13.10;;;6.50;;
53843;SDS011;39744;53.314;5.710;2023-02-08T19:38:36;13.73;;;6.70;;
53843;SDS011;39744;53.314;5.710;2023-02-08T19:41:03;12.43;;;5.82;;
53843;SDS011;39744;53.314;5.710;2023-02-08T19:43:29;11.85;;;6.40;;
53843;SDS011;39744;53.314;5.710;2023-02-08T19:45:56;13.80;;;6.43;;
53843;SDS011;39744;53.314;5.710;2023-02-08T19:48:22;11.77;;;6.38;;
53843;SDS011;39744;53.314;5.710;2023-02-08T19:50:52;12.13;;;6.93;;
53843;SDS011;39744;53.314;5.710;2023-02-08T19:53:23;11.40;;;5.72;;
53843;SDS011;39744;53.314;5.710;2023-02-08T19:55:56;15.57;;;7.43;;
53843;SDS011;39744;53.314;5.710;2023-02-08T19:58:30;13.20;;;6.72;;
53843;SDS011;39744;53.314;5.710;2023-02-08T20:00:56;11.55;;;6.13;;
53843;SDS011;39744;53.314;5.710;2023-02-08T20:03:23;14.35;;;6.65;;
53843;SDS011;39744;53.314;5.710;2023-02-08T20:05:49;17.00;;;6.68;;
53843;SDS011;39744;53.314;5.710;2023-02-08T20:08:16;11.52;;;6.32;;
53843;SDS011;39744;53.314;5.710;2023-02-08T20:10:43;13.35;;;6.40;;
53843;SDS011;39744;53.314;5.710;2023-02-08T20:13:10;12.65;;;6.80;;
53843;SDS011;39744;53.314;5.710;2023-02-08T20:15:37;13.32;;;6.60;;
53843;SDS011;39744;53.314;5.710;2023-02-08T20:18:04;14.18;;;6.75;;
53843;SDS011;39744;53.314;5.710;2023-02-08T20:20:30;13.63;;;6.35;;
53843;SDS011;39744;53.314;5.710;2023-02-08T20:22:56;12.40;;;6.75;;
53843;SDS011;39744;53.314;5.710;2023-02-08T20:25:22;12.55;;;6.75;;
53843;SDS011;39744;53.314;5.710;2023-02-08T20:27:48;12.15;;;6.18;;
53843;SDS011;39744;53.314;5.710;2023-02-08T20:30:14;16.15;;;6.90;;
53843;SDS011;39744;53.314;5.710;2023-02-08T20:32:41;12.02;;;6.78;;
53843;SDS011;39744;53.314;5.710;2023-02-08T20:35:11;12.63;;;7.00;;
53843;SDS011;39744;53.314;5.710;2023-02-08T20:37:41;12.20;;;7.03;;
53843;SDS011;39744;53.314;5.710;2023-02-08T20:40:07;13.25;;;7.15;;
53843;SDS011;39744;53.314;5.710;2023-02-08T20:42:35;10.10;;;6.35;;
53843;SDS011;39744;53.314;5.710;2023-02-08T20:45:01;12.00;;;6.53;;
53843;SDS011;39744;53.314;5.710;2023-02-08T20:47:27;13.23;;;7.57;;
53843;SDS011;39744;53.314;5.710;2023-02-08T20:49:52;14.27;;;6.80;;
53843;SDS011;39744;53.314;5.710;2023-02-08T20:52:18;14.10;;;7.18;;
53843;SDS011;39744;53.314;5.710;2023-02-08T20:54:44;15.77;;;7.45;;
53843;SDS011;39744;53.314;5.710;2023-02-08T20:57:11;14.52;;;7.00;;
53843;SDS011;39744;53.314;5.710;2023-02-08T20:59:39;14.00;;;7.32;;
53843;SDS011;39744;53.314;5.710;2023-02-08T21:02:06;14.63;;;7.28;;
53843;SDS011;39744;53.314;5.710;2023-02-08T21:04:32;13.90;;;7.32;;
53843;SDS011;39744;53.314;5.710;2023-02-08T21:06:59;12.95;;;7.05;;
53843;SDS011;39744;53.314;5.710;2023-02-08T21:09:25;15.70;;;7.35;;
53843;SDS011;39744;53.314;5.710;2023-02-08T21:11:51;13.70;;;7.03;;
53843;SDS011;39744;53.314;5.710;2023-02-08T21:14:18;13.75;;;6.65;;
53843;SDS011;39744;53.314;5.710;2023-02-08T21:16:47;14.60;;;7.25;;
53843;SDS011;39744;53.314;5.710;2023-02-08T21:19:19;13.50;;;7.05;;
53843;SDS011;39744;53.314;5.710;2023-02-08T21:21:53;12.20;;;7.80;;
53843;SDS011;39744;53.314;5.710;2023-02-08T21:24:24;13.60;;;7.75;;
53843;SDS011;39744;53.314;5.710;2023-02-08T21:26:53;12.13;;;7.05;;
53843;SDS011;39744;53.314;5.710;2023-02-08T21:29:19;13.50;;;7.13;;
53843;SDS011;39744;53.314;5.710;2023-02-08T21:31:46;13.05;;;7.18;;
53843;SDS011;39744;53.314;5.710;2023-02-08T21:34:15;14.27;;;7.28;;
53843;SDS011;39744;53.314;5.710;2023-02-08T21:36:41;16.75;;;7.30;;
53843;SDS011;39744;53.314;5.710;2023-02-08T21:39:07;13.80;;;7.55;;
53843;SDS011;39744;53.314;5.710;2023-02-08T21:41:33;12.98;;;7.47;;
53843;SDS011;39744;53.314;5.710;2023-02-08T21:44:00;13.95;;;7.47;;
53843;SDS011;39744;53.314;5.710;2023-02-08T21:46:28;14.25;;;7.07;;
53843;SDS011;39744;53.314;5.710;2023-02-08T21:48:55;12.77;;;7.15;;
53843;SDS011;39744;53.314;5.710;2023-02-08T21:51:40;14.43;;;7.82;;
53843;SDS011;39744;53.314;5.710;2023-02-08T21:54:25;14.23;;;7.22;;
53843;SDS011;39744;53.314;5.710;2023-02-08T21:57:26;11.95;;;6.40;;
53843;SDS011;39744;53.314;5.710;2023-02-08T21:59:56;13.63;;;7.82;;
53843;SDS011;39744;53.314;5.710;2023-02-08T22:02:24;14.95;;;7.13;;
53843;SDS011;39744;53.314;5.710;2023-02-08T22:05:01;15.60;;;6.53;;
53843;SDS011;39744;53.314;5.710;2023-02-08T22:07:28;10.80;;;6.38;;
53843;SDS011;39744;53.314;5.710;2023-02-08T22:10:05;13.90;;;7.15;;
53843;SDS011;39744;53.314;5.710;2023-02-08T22:12:31;11.35;;;6.60;;
53843;SDS011;39744;53.314;5.710;2023-02-08T22:14:57;16.83;;;6.53;;
53843;SDS011;39744;53.314;5.710;2023-02-08T22:17:23;11.63;;;6.43;;
53843;SDS011;39744;53.314;5.710;2023-02-08T22:19:48;13.80;;;6.55;;
53843;SDS011;39744;53.314;5.710;2023-02-08T22:22:15;13.05;;;6.78;;
53843;SDS011;39744;53.314;5.710;2023-02-08T22:24:40;12.82;;;7.50;;
53843;SDS011;39744;53.314;5.710;2023-02-08T22:27:06;10.35;;;6.47;;
53843;SDS011;39744;53.314;5.710;2023-02-08T22:29:36;10.32;;;6.55;;
53843;SDS011;39744;53.314;5.710;2023-02-08T22:32:08;12.13;;;7.28;;
53843;SDS011;39744;53.314;5.710;2023-02-08T22:34:42;14.05;;;7.55;;
53843;SDS011;39744;53.314;5.710;2023-02-08T22:37:08;13.85;;;7.80;;
53843;SDS011;39744;53.314;5.710;2023-02-08T22:39:34;16.52;;;7.38;;
53843;SDS011;39744;53.314;5.710;2023-02-08T22:42:00;12.30;;;7.13;;
53843;SDS011;39744;53.314;5.710;2023-02-08T22:44:31;12.48;;;7.50;;
53843;SDS011;39744;53.314;5.710;2023-02-08T22:46:57;13.98;;;7.40;;
53843;SDS011;39744;53.314;5.710;2023-02-08T22:49:25;14.63;;;8.00;;
53843;SDS011;39744;53.314;5.710;2023-02-08T22:51:51;11.93;;;7.10;;
53843;SDS011;39744;53.314;5.710;2023-02-08T22:54:17;15.20;;;8.18;;
53843;SDS011;39744;53.314;5.710;2023-02-08T22:56:42;11.77;;;7.45;;
53843;SDS011;39744;53.314;5.710;2023-02-08T22:59:08;15.70;;;7.78;;
53843;SDS011;39744;53.314;5.710;2023-02-08T23:01:34;16.40;;;7.50;;
53843;SDS011;39744;53.314;5.710;2023-02-08T23:03:59;12.45;;;7.30;;
53843;SDS011;39744;53.314;5.710;2023-02-08T23:06:25;11.43;;;6.93;;
53843;SDS011;39744;53.314;5.710;2023-02-08T23:08:50;12.45;;;6.63;;
53843;SDS011;39744;53.314;5.710;2023-02-08T23:11:16;15.43;;;7.90;;
53843;SDS011;39744;53.314;5.710;2023-02-08T23:13:43;15.50;;;7.32;;
53843;SDS011;39744;53.314;5.710;2023-02-08T23:16:13;12.60;;;7.35;;
53843;SDS011;39744;53.314;5.710;2023-02-08T23:18:40;12.63;;;7.03;;
53843;SDS011;39744;53.314;5.710;2023-02-08T23:21:06;15.60;;;7.93;;
53843;SDS011;39744;53.314;5.710;2023-02-08T23:23:33;12.75;;;7.88;;
53843;SDS011;39744;53.314;5.710;2023-02-08T23:26:00;16.00;;;7.47;;
53843;SDS011;39744;53.314;5.710;2023-02-08T23:28:28;13.73;;;7.90;;
53843;SDS011;39744;53.314;5.710;2023-02-08T23:30:57;12.80;;;7.45;;
53843;SDS011;39744;53.314;5.710;2023-02-08T23:33:24;15.98;;;7.20;;
53843;SDS011;39744;53.314;5.710;2023-02-08T23:35:49;13.70;;;7.32;;
53843;SDS011;39744;53.314;5.710;2023-02-08T23:38:15;13.90;;;7.60;;
53843;SDS011;39744;53.314;5.710;2023-02-08T23:40:41;13.68;;;7.25;;
53843;SDS011;39744;53.314;5.710;2023-02-08T23:43:06;14.05;;;7.75;;
53843;SDS011;39744;53.314;5.710;2023-02-08T23:45:32;16.67;;;8.45;;
53843;SDS011;39744;53.314;5.710;2023-02-08T23:47:58;17.60;;;7.63;;
53843;SDS011;39744;53.314;5.710;2023-02-08T23:50:24;16.58;;;8.40;;
53843;SDS011;39744;53.314;5.710;2023-02-08T23:52:50;15.35;;;7.90;;
53843;SDS011;39744;53.314;5.710;2023-02-08T23:55:16;14.93;;;8.13;;
53843;SDS011;39744;53.314;5.710;2023-02-08T23:57:41;12.38;;;7.32;;
